Time;durP1;ratioP1;P1;durP2;ratioP2;P2;SDS_P1;SDS_P2;PMS_P1;PMS_P2;Temp;Humidity;BMP_temperature;BMP_pressure;BME280_temperature;BME280_humidity;BME280_pressure;Samples;Min_cycle;Max_cycle;Signal;HPM_P1;HPM_P2
2021/07/09 00:01:06;;;;;;;6.20;4.65;;;18.40;90.80;;;;;;4949434;28;20046;-86
2021/07/09 00:03:35;;;;;;;10.50;4.65;;;18.40;90.70;;;;;;4932872;29;20692;-86
2021/07/09 00:06:01;;;;;;;8.13;5.05;;;18.40;91.20;;;;;;4949212;29;20042;-86
2021/07/09 00:08:27;;;;;;;6.38;4.88;;;18.40;91.10;;;;;;4949587;29;20419;-86
2021/07/09 00:10:52;;;;;;;7.05;5.10;;;18.40;91.00;;;;;;4950205;28;20031;-86
2021/07/09 00:13:18;;;;;;;6.00;4.60;;;18.40;90.90;;;;;;4948985;29;20039;-86
2021/07/09 00:15:43;;;;;;;7.45;5.43;;;18.40;91.00;;;;;;4949094;28;20383;-85
2021/07/09 00:18:09;;;;;;;8.20;5.20;;;18.30;90.80;;;;;;4932573;28;20668;-86
2021/07/09 00:20:34;;;;;;;7.78;4.28;;;18.30;90.90;;;;;;4932934;29;20070;-86
2021/07/09 00:23:00;;;;;;;5.07;4.47;;;18.30;90.60;;;;;;4932822;29;20138;-86
2021/07/09 00:25:26;;;;;;;8.18;4.70;;;18.30;90.70;;;;;;4932962;29;20469;-86
2021/07/09 00:27:51;;;;;;;9.10;4.97;;;18.30;90.70;;;;;;4932119;28;20031;-87
2021/07/09 00:30:17;;;;;;;6.45;4.32;;;18.30;90.90;;;;;;4916838;29;20038;-86
2021/07/09 00:32:42;;;;;;;9.45;4.72;;;18.30;90.90;;;;;;4916460;29;20027;-84
2021/07/09 00:35:09;;;;;;;10.52;5.30;;;18.30;90.90;;;;;;4948408;29;20034;-86
2021/07/09 00:37:34;;;;;;;8.25;4.90;;;18.30;90.80;;;;;;4932439;29;20028;-87
2021/07/09 00:40:00;;;;;;;10.13;4.60;;;18.30;90.80;;;;;;4948545;28;20042;-85
2021/07/09 00:42:26;;;;;;;5.85;3.92;;;18.30;90.80;;;;;;4950301;29;20027;-85
2021/07/09 00:44:51;;;;;;;8.00;4.97;;;18.30;90.80;;;;;;4949758;29;20038;-86
2021/07/09 00:47:17;;;;;;;8.88;3.92;;;18.30;90.80;;;;;;4934446;29;20026;-87
2021/07/09 00:49:43;;;;;;;4.75;4.15;;;18.30;90.80;;;;;;4934100;29;20074;-86
2021/07/09 00:52:08;;;;;;;10.00;4.80;;;18.30;90.70;;;;;;4910989;29;20070;-86
2021/07/09 00:54:34;;;;;;;6.20;4.13;;;18.30;90.80;;;;;;4931511;29;20035;-86
2021/07/09 00:56:59;;;;;;;6.63;4.78;;;18.30;90.90;;;;;;4913373;29;20035;-85
2021/07/09 00:59:25;;;;;;;5.50;4.38;;;18.30;91.10;;;;;;4913121;29;20023;-86
2021/07/09 01:01:51;;;;;;;6.28;4.10;;;18.30;90.80;;;;;;4917967;28;20033;-85
2021/07/09 01:04:16;;;;;;;7.75;4.60;;;18.30;90.90;;;;;;4924744;29;20510;-86
2021/07/09 01:06:42;;;;;;;5.50;4.60;;;18.30;90.90;;;;;;4926343;29;20043;-86
2021/07/09 01:09:07;;;;;;;7.90;4.90;;;18.30;91.20;;;;;;4932408;29;20031;-86
2021/07/09 01:11:33;;;;;;;5.40;4.50;;;18.30;90.90;;;;;;4914147;29;20034;-86
2021/07/09 01:13:58;;;;;;;6.32;4.55;;;18.30;91.10;;;;;;4913390;29;20039;-85
2021/07/09 01:16:24;;;;;;;7.72;4.75;;;18.30;91.10;;;;;;4926598;29;20028;-86
2021/07/09 01:18:50;;;;;;;7.55;4.63;;;18.30;91.50;;;;;;4928612;28;20031;-85
2021/07/09 01:21:15;;;;;;;6.95;5.32;;;18.30;91.40;;;;;;5029914;23;20117;-86
2021/07/09 01:23:41;;;;;;;5.60;4.38;;;18.30;91.60;;;;;;4933880;29;20515;-85
2021/07/09 01:26:08;;;;;;;7.65;4.93;;;18.30;91.40;;;;;;4934018;29;20091;-87
2021/07/09 01:28:34;;;;;;;7.63;5.05;;;18.30;91.00;;;;;;4933282;29;20077;-86
2021/07/09 01:31:00;;;;;;;10.10;5.07;;;18.30;91.00;;;;;;4925221;29;20028;-86
2021/07/09 01:33:25;;;;;;;10.75;5.35;;;18.30;91.20;;;;;;4946157;29;20028;-85
2021/07/09 01:35:51;;;;;;;9.32;5.50;;;18.30;91.00;;;;;;4945485;29;20712;-86
2021/07/09 01:38:17;;;;;;;11.35;5.10;;;18.20;91.00;;;;;;4942409;29;20634;-87
2021/07/09 01:40:42;;;;;;;8.02;5.20;;;18.20;91.20;;;;;;4910925;29;20428;-87
2021/07/09 01:43:08;;;;;;;10.70;5.57;;;18.20;91.40;;;;;;4922197;29;20056;-85
2021/07/09 01:45:33;;;;;;;9.82;5.63;;;18.20;91.30;;;;;;4928941;29;20391;-86
2021/07/09 01:47:59;;;;;;;7.05;5.63;;;18.20;91.50;;;;;;4926634;29;20119;-86
2021/07/09 01:50:25;;;;;;;10.90;5.97;;;18.30;91.80;;;;;;4926726;29;20115;-86
2021/07/09 01:52:51;;;;;;;9.27;5.95;;;18.30;91.50;;;;;;4927224;29;20032;-86
2021/07/09 01:55:16;;;;;;;8.32;5.72;;;18.30;91.70;;;;;;4919627;29;20032;-86
2021/07/09 01:57:42;;;;;;;10.75;6.13;;;18.30;91.70;;;;;;4926713;29;20166;-86
2021/07/09 02:00:19;;;;;;;12.35;7.47;;;18.20;91.60;;;;;;4918013;29;20038;-85
2021/07/09 02:02:44;;;;;;;8.25;6.20;;;18.30;91.70;;;;;;4945849;29;20655;-86
2021/07/09 02:05:12;;;;;;;7.15;5.80;;;18.20;91.40;;;;;;4945754;29;20118;-86
2021/07/09 02:07:38;;;;;;;10.73;6.03;;;18.20;91.30;;;;;;4915136;29;20019;-86
2021/07/09 02:10:05;;;;;;;8.32;6.10;;;18.20;91.40;;;;;;4932099;29;20023;-86
2021/07/09 02:12:31;;;;;;;10.63;6.60;;;18.20;91.30;;;;;;4932000;29;20035;-86
2021/07/09 02:14:58;;;;;;;9.95;6.95;;;18.20;91.30;;;;;;4932549;29;20032;-86
2021/07/09 02:17:24;;;;;;;8.60;6.75;;;18.20;91.30;;;;;;4934731;29;20032;-85
2021/07/09 02:19:50;;;;;;;9.68;6.75;;;18.20;91.50;;;;;;4918785;29;20039;-86
2021/07/09 02:22:16;;;;;;;11.30;6.70;;;18.20;91.40;;;;;;4918005;29;20031;-86
2021/07/09 02:24:43;;;;;;;9.57;7.22;;;18.10;91.40;;;;;;4916458;29;20122;-86
2021/07/09 02:27:09;;;;;;;19.15;7.85;;;18.10;91.30;;;;;;4916480;29;20031;-85
2021/07/09 02:29:34;;;;;;;10.40;6.35;;;18.10;91.40;;;;;;4932450;29;20024;-85
2021/07/09 02:32:04;;;;;;;10.70;5.70;;;18.10;91.40;;;;;;4931561;29;20046;-85
2021/07/09 02:34:30;;;;;;;10.93;6.60;;;18.10;91.50;;;;;;4946976;29;20035;-86
2021/07/09 02:36:55;;;;;;;12.27;6.35;;;18.10;91.40;;;;;;4931469;29;20118;-87
2021/07/09 02:39:22;;;;;;;7.95;6.25;;;18.10;91.40;;;;;;4931327;29;20038;-86
2021/07/09 02:41:47;;;;;;;13.27;7.68;;;18.10;91.40;;;;;;4915636;29;20095;-86
2021/07/09 02:44:13;;;;;;;14.80;6.95;;;18.10;91.50;;;;;;4915584;29;20028;-86
2021/07/09 02:46:38;;;;;;;10.23;6.53;;;18.10;91.90;;;;;;4915542;29;20039;-86
2021/07/09 02:49:04;;;;;;;13.48;8.98;;;18.10;91.90;;;;;;4946745;29;20030;-86
2021/07/09 02:51:29;;;;;;;19.65;9.90;;;18.10;91.90;;;;;;4946934;29;20277;-86
2021/07/09 02:53:55;;;;;;;20.70;11.85;;;18.10;91.70;;;;;;4916484;29;20024;-86
2021/07/09 02:56:20;;;;;;;23.35;13.30;;;18.10;91.60;;;;;;4917690;29;20043;-86
2021/07/09 02:58:46;;;;;;;19.98;13.82;;;18.00;91.50;;;;;;4917026;29;20031;-87
2021/07/09 03:01:11;;;;;;;20.02;13.02;;;18.00;91.60;;;;;;4915072;29;20040;-86
2021/07/09 03:03:37;;;;;;;22.48;15.68;;;18.00;91.50;;;;;;4915328;29;20067;-85
2021/07/09 03:06:02;;;;;;;22.90;15.52;;;18.10;91.70;;;;;;4931075;29;20062;-86
2021/07/09 03:08:28;;;;;;;22.08;15.55;;;18.00;91.40;;;;;;4914871;29;20119;-86
2021/07/09 03:47:12;;;;;;;;;;;;;;;;;;;;;
2021/07/09 03:53:57;;;;;;;;;;;;;;;;;;;;;
2021/07/09 04:04:18;;;;;;;;;;;;;;;;;;;;;
2021/07/09 04:07:33;;;;;;;;;;;;;;;;;;;;;
2021/07/09 04:11:05;;;;;;;34.90;22.40;;;18.00;91.20;;;;;;4834883;29;20045;-85
2021/07/09 04:17:46;;;;;;;32.60;24.42;;;18.00;91.20;;;;;;4898188;28;20072;-85
2021/07/09 04:27:55;;;;;;;;;;;;;;;;;;;;;
2021/07/09 04:31:00;;;;;;;;;;;;;;;;;;;;;
2021/07/09 04:54:10;;;;;;;36.17;27.67;;;18.10;91.30;;;;;;5027159;23;20400;-85
2021/07/09 04:57:24;;;;;;;;;;;;;;;;;;;;;
2021/07/09 06:10:55;;;;;;;;;;;;;;;;;;;;;
2021/07/09 06:24:19;;;;;;;;;;;;;;;;;;;;;
2021/07/09 06:30:11;;;;;;;32.75;25.30;;;18.60;90.90;;;;;;4872709;29;20441;-86
2021/07/09 06:32:46;;;;;;;37.53;26.92;;;18.60;90.90;;;;;;4833168;29;20044;-87
2021/07/09 06:36:03;;;;;;;37.97;26.88;;;18.60;90.90;;;;;;4909022;29;20050;-86
2021/07/09 06:39:33;;;;;;;34.45;26.77;;;18.60;90.90;;;;;;4941861;29;20046;-85
2021/07/09 06:42:20;;;;;;;38.15;27.13;;;18.70;90.70;;;;;;4921512;29;20514;-86
2021/07/09 06:49:09;;;;;;;36.08;26.33;;;18.60;90.60;;;;;;4862893;29;20120;-85
2021/07/09 06:52:12;;;;;;;35.83;26.67;;;18.60;90.50;;;;;;4853826;29;20041;-85
2021/07/09 06:55:26;;;;;;;39.40;27.10;;;18.70;90.60;;;;;;4916545;29;20045;-85
2021/07/09 06:58:15;;;;;;;36.67;26.92;;;18.70;90.20;;;;;;4952159;28;20036;-85
2021/07/09 07:01:07;;;;;;;37.50;24.27;;;18.80;90.40;;;;;;4895808;29;20103;-85
2021/07/09 07:04:34;;;;;;;33.55;23.13;;;18.70;90.50;;;;;;4876696;29;20048;-85
2021/07/09 07:07:31;;;;;;;30.02;23.38;;;18.80;90.60;;;;;;4909659;28;20067;-85
2021/07/09 08:26:31;;;;;;;;;;;;;;;;;;;;;
2021/07/09 08:43:01;;;;;;;24.92;16.45;;;20.00;86.10;;;;;;4796372;29;20061;-85
2021/07/09 08:53:48;;;;;;;20.02;15.10;;;20.20;82.50;;;;;;4889968;29;20052;-85
2021/07/09 09:08:38;;;;;;;;;;;;;;;;;;;;;
2021/07/09 09:30:44;;;;;;;13.65;9.80;;;20.40;76.70;;;;;;4906923;23;20092;-87
2021/07/09 09:33:11;;;;;;;18.60;10.45;;;20.40;78.20;;;;;;4963422;28;20035;-87
2021/07/09 09:35:40;;;;;;;15.82;11.25;;;20.30;79.20;;;;;;4924526;29;20078;-87
2021/07/09 09:38:08;;;;;;;18.85;13.00;;;20.30;79.90;;;;;;4960596;28;20035;-87
2021/07/09 09:40:34;;;;;;;19.27;12.98;;;20.30;80.20;;;;;;4934978;28;20054;-86
2021/07/09 09:43:05;;;;;;;27.92;13.10;;;20.30;80.80;;;;;;4931155;28;20031;-88
2021/07/09 09:45:31;;;;;;;15.73;11.88;;;20.20;80.50;;;;;;4912615;29;20035;-88
2021/07/09 09:48:03;;;;;;;20.20;12.93;;;20.20;81.10;;;;;;4921147;29;20027;-87
2021/07/09 09:50:29;;;;;;;20.45;14.32;;;20.10;81.10;;;;;;4922533;29;20043;-86
2021/07/09 09:52:55;;;;;;;18.83;12.73;;;20.10;80.30;;;;;;4935565;29;20027;-84
2021/07/09 09:55:22;;;;;;;19.08;12.15;;;20.20;81.10;;;;;;4947975;29;20054;-86
2021/07/09 09:57:49;;;;;;;18.58;13.05;;;20.20;81.40;;;;;;4931496;29;20138;-87
2021/07/09 10:00:21;;;;;;;20.20;12.00;;;20.20;81.50;;;;;;4931271;29;20035;-87
2021/07/09 10:02:48;;;;;;;16.08;11.60;;;20.20;81.00;;;;;;4947288;29;20046;-86
2021/07/09 10:05:13;;;;;;;14.65;10.63;;;20.20;78.00;;;;;;4913033;29;20028;-87
2021/07/09 10:07:39;;;;;;;10.52;8.27;;;20.20;77.40;;;;;;4930505;29;20031;-90
2021/07/09 10:10:05;;;;;;;17.30;10.38;;;20.20;76.90;;;;;;4915731;29;20082;-86
2021/07/09 10:12:30;;;;;;;14.43;9.38;;;20.20;75.30;;;;;;4912480;29;20131;-86
2021/07/09 10:14:56;;;;;;;14.50;9.35;;;20.20;75.50;;;;;;4928669;29;20118;-87
2021/07/09 10:17:21;;;;;;;10.30;7.93;;;20.20;76.40;;;;;;4950082;28;20030;-87
2021/07/09 10:19:47;;;;;;;8.52;6.15;;;20.30;76.30;;;;;;4939377;29;20071;-86
2021/07/09 10:22:13;;;;;;;11.50;7.63;;;20.30;70.40;;;;;;4923742;29;20817;-88
2021/07/09 10:24:42;;;;;;;11.35;7.20;;;20.30;72.70;;;;;;4923310;29;20031;-87
2021/07/09 10:27:08;;;;;;;16.23;10.73;;;20.30;73.20;;;;;;4929943;29;20035;-87
2021/07/09 10:29:34;;;;;;;19.00;10.25;;;20.30;73.90;;;;;;4936877;29;20083;-87
2021/07/09 10:32:04;;;;;;;16.02;10.55;;;20.30;74.20;;;;;;4950985;28;20042;-88
2021/07/09 10:34:37;;;;;;;14.20;9.27;;;20.40;74.50;;;;;;4933037;29;20114;-87
2021/07/09 10:37:03;;;;;;;14.40;8.43;;;20.50;74.10;;;;;;4919053;29;20038;-88
2021/07/09 10:39:38;;;;;;;12.90;7.03;;;20.50;73.40;;;;;;4949856;28;20031;-87
2021/07/09 10:42:39;;;;;;;15.57;7.85;;;20.60;72.60;;;;;;4950801;29;20164;-86
2021/07/09 10:45:26;;;;;;;9.70;7.25;;;20.60;73.40;;;;;;4947316;29;20475;-86
2021/07/09 10:48:05;;;;;;;11.15;7.40;;;20.70;70.60;;;;;;4936755;29;20047;-86
2021/07/09 10:50:53;;;;;;;11.68;7.80;;;20.80;70.10;;;;;;4948369;29;20023;-86
2021/07/09 10:53:25;;;;;;;9.45;6.50;;;20.80;69.30;;;;;;4935384;29;20054;-86
2021/07/09 10:56:00;;;;;;;12.52;7.38;;;20.90;69.20;;;;;;4951702;28;20031;-87
2021/07/09 10:58:32;;;;;;;9.70;6.82;;;20.90;69.50;;;;;;4937464;29;20031;-87
2021/07/09 11:01:04;;;;;;;7.78;6.10;;;21.00;66.70;;;;;;4922507;29;20035;-87
2021/07/09 11:03:41;;;;;;;9.43;7.15;;;21.00;67.30;;;;;;4921094;29;20027;-87
2021/07/09 11:06:10;;;;;;;10.80;7.10;;;21.10;67.60;;;;;;4912507;29;20031;-87
2021/07/09 11:08:40;;;;;;;6.78;5.88;;;21.10;67.40;;;;;;4948327;29;20865;-87
2021/07/09 11:11:18;;;;;;;9.40;5.32;;;21.10;67.30;;;;;;4933819;29;20114;-87
2021/07/09 11:13:51;;;;;;;7.85;5.65;;;21.10;69.10;;;;;;4930831;29;20035;-87
2021/07/09 11:16:35;;;;;;;10.40;7.43;;;21.20;69.60;;;;;;4930598;29;20031;-87
2021/07/09 11:19:08;;;;;;;10.65;6.88;;;21.30;66.60;;;;;;4927881;28;20051;-86
2021/07/09 11:21:36;;;;;;;7.35;5.90;;;21.40;67.90;;;;;;4943075;29;20062;-86
2021/07/09 11:24:28;;;;;;;7.88;5.55;;;21.40;66.80;;;;;;4939868;29;20032;-86
2021/07/09 11:26:54;;;;;;;8.43;6.38;;;21.50;66.40;;;;;;4949130;29;20045;-86
2021/07/09 11:29:30;;;;;;;8.32;6.18;;;21.50;64.90;;;;;;4949104;29;20469;-87
2021/07/09 11:32:00;;;;;;;12.02;8.00;;;21.60;65.80;;;;;;4949894;29;20046;-85
2021/07/09 11:34:28;;;;;;;10.15;8.18;;;21.60;64.00;;;;;;4934040;29;20038;-86
2021/07/09 11:36:57;;;;;;;11.90;7.35;;;21.70;63.50;;;;;;4932989;29;20038;-86
2021/07/09 11:39:27;;;;;;;10.18;6.70;;;21.70;63.70;;;;;;4926509;29;20344;-87
2021/07/09 11:42:18;;;;;;;10.00;7.07;;;21.80;64.30;;;;;;4940366;29;20028;-87
2021/07/09 11:44:55;;;;;;;9.65;8.65;;;21.80;64.30;;;;;;4944828;29;20032;-87
2021/07/09 11:47:36;;;;;;;11.80;7.20;;;21.90;63.30;;;;;;4919596;28;20027;-87
2021/07/09 11:50:20;;;;;;;11.77;7.20;;;21.90;64.40;;;;;;4948602;29;20547;-87
2021/07/09 11:52:51;;;;;;;11.90;7.25;;;22.00;63.50;;;;;;4929120;29;20028;-86
2021/07/09 11:55:21;;;;;;;8.10;7.22;;;22.00;63.40;;;;;;4929490;29;20150;-85
2021/07/09 11:57:47;;;;;;;11.02;7.95;;;22.10;63.10;;;;;;4947960;29;20077;-86
2021/07/09 12:00:14;;;;;;;11.27;7.20;;;22.00;62.90;;;;;;4933112;29;20058;-87
2021/07/09 12:02:40;;;;;;;10.00;6.07;;;22.00;62.60;;;;;;4930103;29;20065;-87
2021/07/09 12:05:07;;;;;;;8.68;5.28;;;22.00;63.50;;;;;;4921270;29;20055;-87
2021/07/09 12:07:52;;;;;;;9.32;5.68;;;22.00;63.00;;;;;;4947655;29;20548;-87
2021/07/09 12:10:30;;;;;;;9.60;5.22;;;22.00;63.10;;;;;;4946125;29;20081;-86
2021/07/09 12:12:57;;;;;;;10.68;5.60;;;22.00;63.10;;;;;;4934705;28;20043;-87
2021/07/09 12:15:24;;;;;;;8.27;4.85;;;22.10;63.60;;;;;;4927717;29;20028;-87
2021/07/09 12:17:51;;;;;;;12.05;6.18;;;22.10;64.00;;;;;;4945664;29;20399;-86
2021/07/09 12:20:17;;;;;;;8.95;5.90;;;22.10;62.60;;;;;;4940298;29;20031;-86
2021/07/09 12:22:46;;;;;;;11.18;6.88;;;22.20;62.90;;;;;;4945912;29;20035;-85
2021/07/09 12:25:20;;;;;;;11.40;6.28;;;22.20;62.40;;;;;;4928411;29;20122;-87
2021/07/09 12:27:46;;;;;;;11.07;5.32;;;22.30;63.50;;;;;;4926967;29;20038;-88
2021/07/09 12:30:16;;;;;;;13.15;7.13;;;22.30;63.60;;;;;;4928423;29;20031;-87
2021/07/09 12:32:52;;;;;;;12.13;8.93;;;22.30;66.00;;;;;;4912354;29;20574;-87
2021/07/09 12:35:19;;;;;;;11.65;7.63;;;22.40;66.20;;;;;;4939931;29;20137;-87
2021/07/09 12:38:01;;;;;;;9.90;7.80;;;22.40;67.00;;;;;;4927717;29;20027;-88
2021/07/09 12:40:29;;;;;;;12.57;8.40;;;22.40;66.70;;;;;;4922716;29;20047;-86
2021/07/09 12:43:25;;;;;;;12.95;9.23;;;22.40;66.90;;;;;;4929873;29;20091;-86
2021/07/09 12:45:59;;;;;;;13.23;9.20;;;22.40;68.20;;;;;;4916371;29;20423;-88
2021/07/09 12:48:31;;;;;;;14.15;10.77;;;22.40;67.50;;;;;;4932593;29;20067;-86
2021/07/09 12:50:57;;;;;;;20.35;10.77;;;22.30;66.90;;;;;;4945405;28;20054;-87
2021/07/09 12:53:22;;;;;;;12.27;10.15;;;22.30;67.40;;;;;;4939541;29;20122;-87
2021/07/09 12:55:49;;;;;;;11.18;9.77;;;22.20;66.60;;;;;;4911709;29;20123;-88
2021/07/09 12:58:26;;;;;;;19.30;10.77;;;22.20;68.10;;;;;;4925704;29;20034;-86
2021/07/09 13:00:55;;;;;;;13.77;10.10;;;22.30;67.80;;;;;;4927817;28;20035;-86
2021/07/09 13:03:31;;;;;;;10.65;8.45;;;22.40;68.70;;;;;;4928799;28;20042;-87
2021/07/09 13:06:17;;;;;;;9.48;8.45;;;22.50;67.40;;;;;;4935081;29;20462;-88
2021/07/09 13:08:45;;;;;;;16.25;9.68;;;22.50;67.50;;;;;;4931933;28;20041;-87
2021/07/09 13:11:15;;;;;;;11.48;8.80;;;22.60;66.50;;;;;;4931061;29;20035;-87
2021/07/09 13:13:48;;;;;;;12.75;8.32;;;22.60;65.80;;;;;;4948403;29;20058;-88
2021/07/09 13:16:14;;;;;;;10.88;8.05;;;22.60;64.90;;;;;;4933106;29;20894;-88
2021/07/09 13:18:41;;;;;;;10.98;7.97;;;22.60;63.30;;;;;;4916391;29;20063;-87
2021/07/09 13:21:11;;;;;;;11.45;7.50;;;22.70;63.20;;;;;;4944790;28;20106;-87
2021/07/09 13:23:37;;;;;;;11.48;9.27;;;22.80;64.00;;;;;;4916113;29;20035;-87
2021/07/09 13:26:07;;;;;;;12.23;8.15;;;22.80;62.60;;;;;;4914047;29;20410;-87
2021/07/09 13:28:40;;;;;;;13.40;8.93;;;22.90;64.00;;;;;;4945436;29;20038;-87
2021/07/09 13:31:06;;;;;;;9.35;7.38;;;22.90;64.00;;;;;;4944923;28;20131;-87
2021/07/09 13:33:32;;;;;;;16.08;9.73;;;22.90;64.20;;;;;;4945388;29;20642;-88
2021/07/09 13:35:57;;;;;;;14.85;9.70;;;23.00;63.20;;;;;;4931798;29;20561;-88
2021/07/09 13:38:23;;;;;;;14.63;10.13;;;23.10;63.00;;;;;;4929260;29;20035;-87
2021/07/09 13:40:51;;;;;;;12.65;9.73;;;23.10;63.40;;;;;;4929336;29;20039;-87
2021/07/09 13:43:17;;;;;;;13.27;10.20;;;23.20;60.90;;;;;;4941464;29;20035;-89
2021/07/09 13:45:43;;;;;;;14.40;11.05;;;23.10;61.90;;;;;;4933397;29;20040;-88
2021/07/09 13:48:12;;;;;;;12.05;9.40;;;23.20;62.00;;;;;;4943161;28;20463;-86
2021/07/09 13:50:37;;;;;;;9.75;8.27;;;23.20;62.40;;;;;;4930811;29;20030;-88
2021/07/09 13:53:03;;;;;;;12.63;8.85;;;23.20;60.30;;;;;;4915652;29;20117;-87
2021/07/09 13:55:29;;;;;;;11.32;9.43;;;23.30;59.90;;;;;;4947673;29;20031;-86
2021/07/09 13:57:54;;;;;;;12.95;8.15;;;23.30;60.20;;;;;;4913113;29;20036;-86
2021/07/09 14:00:20;;;;;;;10.77;8.43;;;23.30;59.80;;;;;;4929794;28;20042;-86
2021/07/09 14:02:45;;;;;;;14.88;8.25;;;23.30;59.60;;;;;;4913109;29;20122;-86
2021/07/09 14:05:11;;;;;;;15.80;9.73;;;23.30;59.50;;;;;;4916857;29;20032;-86
2021/07/09 14:07:37;;;;;;;14.10;10.35;;;23.40;59.90;;;;;;4924748;29;20026;-86
2021/07/09 14:10:03;;;;;;;16.73;11.65;;;23.50;60.90;;;;;;4931643;29;20024;-86
2021/07/09 14:12:29;;;;;;;15.65;10.80;;;23.50;59.80;;;;;;4932728;29;20042;-88
2021/07/09 14:14:55;;;;;;;20.67;12.02;;;23.60;60.50;;;;;;4932826;29;20031;-87
2021/07/09 14:17:21;;;;;;;17.80;11.77;;;23.60;62.00;;;;;;4932044;29;20038;-87
2021/07/09 14:19:46;;;;;;;19.92;11.18;;;23.70;61.90;;;;;;4932733;29;20042;-87
2021/07/09 14:22:11;;;;;;;15.25;12.55;;;23.70;62.00;;;;;;4932354;29;20040;-86
2021/07/09 14:24:39;;;;;;;14.57;11.65;;;23.80;61.20;;;;;;4932659;29;20432;-86
2021/07/09 14:27:05;;;;;;;17.48;12.15;;;23.80;61.00;;;;;;4932322;29;20028;-86
2021/07/09 14:29:31;;;;;;;16.15;13.00;;;23.80;61.30;;;;;;4932233;29;20596;-86
2021/07/09 14:31:56;;;;;;;13.15;11.75;;;23.90;61.00;;;;;;4932297;29;20044;-88
2021/07/09 14:34:22;;;;;;;14.25;12.18;;;24.00;60.30;;;;;;4932315;29;20487;-86
2021/07/09 14:36:47;;;;;;;15.57;11.73;;;24.00;59.10;;;;;;4932685;29;20549;-87
2021/07/09 14:39:12;;;;;;;15.45;12.68;;;24.00;59.40;;;;;;4931559;29;20040;-87
2021/07/09 14:41:38;;;;;;;16.08;12.50;;;24.10;58.40;;;;;;4931932;29;20091;-86
2021/07/09 14:44:04;;;;;;;18.83;13.13;;;24.10;58.60;;;;;;4932547;29;20043;-87
2021/07/09 14:46:29;;;;;;;14.57;11.73;;;24.20;59.80;;;;;;4932391;29;20079;-87
2021/07/09 14:48:55;;;;;;;18.35;14.93;;;24.30;59.30;;;;;;4931989;29;20075;-87
2021/07/09 14:51:21;;;;;;;18.05;15.23;;;24.40;59.40;;;;;;4932376;29;20027;-87
2021/07/09 14:53:46;;;;;;;24.15;16.67;;;24.40;59.10;;;;;;4932519;29;20055;-86
2021/07/09 14:56:12;;;;;;;21.23;16.60;;;24.50;59.70;;;;;;4931888;29;20031;-87
2021/07/09 14:58:37;;;;;;;20.65;16.30;;;24.60;59.80;;;;;;4931525;29;20043;-87
2021/07/09 15:01:03;;;;;;;19.75;16.75;;;24.70;60.10;;;;;;4931524;29;20047;-87
2021/07/09 15:03:28;;;;;;;17.27;15.45;;;24.70;60.10;;;;;;4931688;29;20031;-87
2021/07/09 15:05:54;;;;;;;11.82;10.18;;;24.80;59.80;;;;;;4931945;29;20361;-87
2021/07/09 15:08:19;;;;;;;9.32;8.30;;;24.80;56.30;;;;;;4931585;29;20031;-87
2021/07/09 15:10:45;;;;;;;8.77;7.88;;;24.90;53.50;;;;;;4931738;29;20039;-88
2021/07/09 15:13:10;;;;;;;8.15;7.03;;;24.80;53.60;;;;;;4936150;28;20028;-87
2021/07/09 15:15:36;;;;;;;7.70;6.40;;;25.00;53.50;;;;;;4950317;29;20654;-88
2021/07/09 15:18:01;;;;;;;7.57;6.70;;;25.50;53.10;;;;;;4934276;29;20031;-87
2021/07/09 15:20:27;;;;;;;10.63;7.00;;;25.90;53.00;;;;;;4934956;29;20027;-87
2021/07/09 15:22:52;;;;;;;7.78;6.65;;;26.50;52.60;;;;;;4934683;29;20453;-87
2021/07/09 15:25:18;;;;;;;9.40;7.60;;;27.30;49.70;;;;;;4934688;29;20045;-87
2021/07/09 15:27:43;;;;;;;10.38;7.15;;;27.60;49.20;;;;;;4950435;29;20448;-87
2021/07/09 15:30:10;;;;;;;9.43;7.30;;;27.80;49.60;;;;;;4950603;29;20625;-87
2021/07/09 15:32:36;;;;;;;8.10;7.32;;;28.10;50.30;;;;;;4934781;29;20098;-88
2021/07/09 15:35:02;;;;;;;8.43;7.38;;;28.10;48.60;;;;;;4933829;29;20031;-88
2021/07/09 15:37:27;;;;;;;10.88;8.02;;;27.90;49.20;;;;;;4934069;29;20097;-88
2021/07/09 15:39:53;;;;;;;12.23;8.52;;;27.90;49.50;;;;;;4933799;29;20383;-88
2021/07/09 15:42:18;;;;;;;10.20;8.02;;;28.10;49.40;;;;;;4933602;29;20824;-88
2021/07/09 15:44:44;;;;;;;10.35;7.80;;;28.00;49.20;;;;;;4933739;29;20023;-87
2021/07/09 15:47:10;;;;;;;9.90;8.80;;;27.90;50.70;;;;;;4933498;29;20077;-87
2021/07/09 15:49:35;;;;;;;10.70;9.32;;;27.40;51.00;;;;;;4933540;29;20081;-87
2021/07/09 15:52:02;;;;;;;9.27;8.38;;;27.00;50.90;;;;;;4949266;28;20673;-87
2021/07/09 15:54:28;;;;;;;13.00;9.77;;;26.60;54.40;;;;;;4933584;29;20098;-87
2021/07/09 15:56:57;;;;;;;9.98;8.50;;;26.30;53.50;;;;;;4933499;29;20082;-88
2021/07/09 15:59:23;;;;;;;10.20;9.13;;;26.00;54.70;;;;;;4933793;29;20109;-88
2021/07/09 16:01:48;;;;;;;8.77;7.82;;;25.90;55.80;;;;;;4933105;29;20189;-87
2021/07/09 16:04:14;;;;;;;11.85;8.38;;;25.80;56.50;;;;;;4949334;29;20406;-87
2021/07/09 16:06:39;;;;;;;10.77;9.13;;;25.80;56.30;;;;;;4933272;29;20081;-88
2021/07/09 16:09:05;;;;;;;14.27;9.85;;;25.60;55.40;;;;;;4933019;29;20167;-88
2021/07/09 16:11:30;;;;;;;15.50;10.98;;;25.50;54.30;;;;;;4948815;29;20032;-87
2021/07/09 16:13:56;;;;;;;11.43;10.23;;;25.40;54.80;;;;;;4933442;29;20027;-87
2021/07/09 16:16:21;;;;;;;16.77;12.13;;;25.20;54.50;;;;;;4933445;29;20031;-88
2021/07/09 16:18:47;;;;;;;15.48;11.80;;;25.00;55.20;;;;;;4949046;29;20395;-87
2021/07/09 16:21:12;;;;;;;13.73;10.82;;;24.90;55.80;;;;;;4933140;29;20023;-88
2021/07/09 16:23:38;;;;;;;14.43;11.05;;;24.70;56.80;;;;;;4917202;29;20034;-87
2021/07/09 16:26:03;;;;;;;21.15;12.75;;;24.60;58.40;;;;;;4916967;29;20028;-88
2021/07/09 16:28:29;;;;;;;17.30;12.48;;;24.50;59.20;;;;;;4948349;29;20077;-87
2021/07/09 16:30:55;;;;;;;19.77;13.30;;;24.40;60.10;;;;;;4932710;29;20037;-88
2021/07/09 16:33:20;;;;;;;18.98;12.88;;;24.30;60.10;;;;;;4932837;29;20031;-87
2021/07/09 16:35:46;;;;;;;14.90;12.68;;;24.20;58.00;;;;;;4948917;29;20038;-87
2021/07/09 16:38:11;;;;;;;15.55;11.93;;;24.10;58.80;;;;;;4932572;29;20035;-88
2021/07/09 16:40:37;;;;;;;15.95;11.18;;;24.00;60.60;;;;;;4932558;29;20042;-87
2021/07/09 16:43:02;;;;;;;14.40;10.38;;;24.00;61.10;;;;;;4932736;29;20027;-87
2021/07/09 16:45:28;;;;;;;12.07;9.80;;;23.90;59.60;;;;;;4932151;29;20105;-87
2021/07/09 16:47:54;;;;;;;13.07;10.60;;;23.90;60.10;;;;;;4932481;29;20525;-88
2021/07/09 16:50:19;;;;;;;12.23;9.52;;;23.90;61.00;;;;;;4932627;29;20038;-89
2021/07/09 16:52:45;;;;;;;11.68;9.43;;;23.80;62.50;;;;;;4932462;29;20034;-88
2021/07/09 16:55:11;;;;;;;13.02;9.00;;;23.80;62.00;;;;;;4932694;29;20142;-89
2021/07/09 16:57:36;;;;;;;10.30;8.70;;;23.80;60.70;;;;;;4932411;29;20054;-87
2021/07/09 17:00:04;;;;;;;12.20;10.20;;;23.80;61.70;;;;;;4932443;29;20061;-87
2021/07/09 17:02:30;;;;;;;13.40;9.60;;;23.80;60.80;;;;;;4932417;29;20038;-89
2021/07/09 17:04:55;;;;;;;11.98;9.48;;;23.80;60.80;;;;;;4948131;29;20031;-87
2021/07/09 17:07:21;;;;;;;13.93;9.68;;;23.70;59.90;;;;;;4932402;29;20038;-88
2021/07/09 17:09:46;;;;;;;11.05;9.38;;;23.60;60.20;;;;;;4932760;29;20031;-87
2021/07/09 17:12:12;;;;;;;11.95;9.63;;;23.70;61.80;;;;;;4932386;29;20057;-88
2021/07/09 17:14:38;;;;;;;15.48;10.60;;;23.70;61.60;;;;;;4932330;29;20034;-88
2021/07/09 17:17:03;;;;;;;13.90;9.30;;;23.70;60.30;;;;;;4932251;29;20110;-87
2021/07/09 17:19:29;;;;;;;22.45;12.10;;;23.70;61.90;;;;;;4932241;29;20735;-87
2021/07/09 17:21:54;;;;;;;12.65;9.90;;;23.70;60.70;;;;;;4931706;29;20066;-87
2021/07/09 17:24:20;;;;;;;12.32;10.05;;;23.60;61.20;;;;;;4948368;29;20479;-87
2021/07/09 17:26:45;;;;;;;11.52;9.43;;;23.70;61.00;;;;;;4916386;29;20043;-88
2021/07/09 17:29:11;;;;;;;12.00;9.52;;;23.70;63.90;;;;;;4931757;29;20059;-88
2021/07/09 17:31:36;;;;;;;14.77;11.00;;;23.70;63.00;;;;;;4932017;29;20114;-87
2021/07/09 17:34:02;;;;;;;12.48;9.80;;;23.70;62.20;;;;;;4932007;29;20023;-87
2021/07/09 17:36:27;;;;;;;15.10;9.57;;;23.80;62.80;;;;;;4932129;28;20372;-88
2021/07/09 17:38:54;;;;;;;10.48;8.73;;;23.70;61.80;;;;;;4935023;29;20505;-87
2021/07/09 17:41:19;;;;;;;13.63;9.38;;;23.70;61.10;;;;;;4935693;29;20026;-87
2021/07/09 17:43:45;;;;;;;11.30;8.70;;;23.80;59.60;;;;;;4936072;29;20027;-87
2021/07/09 17:46:10;;;;;;;13.40;10.20;;;23.70;59.80;;;;;;4935958;29;20222;-88
2021/07/09 17:48:36;;;;;;;10.88;9.77;;;23.60;61.60;;;;;;4919708;29;20061;-88
2021/07/09 17:51:02;;;;;;;12.38;9.30;;;23.60;60.80;;;;;;4951581;29;20047;-87
2021/07/09 17:53:29;;;;;;;13.50;9.52;;;23.60;62.30;;;;;;4951970;29;20455;-88
2021/07/09 17:55:54;;;;;;;9.75;8.43;;;23.60;62.60;;;;;;4935903;29;20084;-88
2021/07/09 17:58:20;;;;;;;15.10;9.15;;;23.50;63.10;;;;;;4951249;29;20524;-88
2021/07/09 18:00:45;;;;;;;11.82;8.52;;;23.50;61.80;;;;;;4935958;29;20067;-87